Albuquerque, NM (87108)

6:51 PM MDT on April 24, 2015 (GMT -0600)
Siesta Hills | | Change Station
CLOSE
Current Station
Personal Weather Station
Location: Albuquerque, NM
Elevation: 5338 ft
Nearby Weather Stations

Elev 5338 ft 35.05 °N, 106.58 °W | Updated 10 minutes ago

Mostly Cloudy
Mostly Cloudy
55.5 °F
Feels Like 55.5 °F
N
0.0
Wind Variable Wind from ESE
Gusts 0.0 mph

Today
High -- | Low -- °F
--% Chance of Precip.
Yesterday
High -- | Low -- °F
Precip. -- in
6:23 AM 7:46 PM
Waxing Crescent, 41% visible
Pressure 29.87 in
Visibility 10.0 miles
Clouds Few 6000 ft
Scattered Clouds 9000 ft
Mostly Cloudy 15000 ft
Dew Point 36 °F
Humidity 49%
Rainfall 0.14 in
Snow Depth Not available.
UV 0 out of 12
Pollen 8.90 out of 12
Air Quality Not available.
Flu Activity Local Activity
SPECI KABQ 250038Z 12005KT 10SM VCTS FEW060 SCT090CB BKN150 13/04 A2987 RMK AO2 TSE32 TS NE MOV E VCSH NE T01330039 $

More Conditions Fewer Conditions

Pressure 29.87 in
Visibility 10.0 miles
Clouds Few 6000 ft
Scattered Clouds 9000 ft
Mostly Cloudy 15000 ft
Dew Point 36 °F
Humidity 49%
Rainfall 0.14 in
Snow Depth Not available.
UV 0 out of 12
Pollen 8.90 out of 12
Air Quality Not available.
Flu Activity Local Activity
SPECI KABQ 250038Z 12005KT 10SM VCTS FEW060 SCT090CB BKN150 13/04 A2987 RMK AO2 TSE32 TS NE MOV E VCSH NE T01330039 $

More Conditions Fewer Conditions

Nowcast | as of 5:53 PM MDT on April 24, 2015

Through 730 PM...shower and thunderstorm coverage will continue to diminish over central and western New Mexico. Remaining activity will be capable of brief moderate rain with amounts generally less than one tenth of an inch. A few cloud to ground lightning strikes and gusty winds to 35 mph are also possible with the stronger storms. Favored areas include the Estancia valley and Central Highlands as well as areas from Navajo Dam to Lindrith and El Rito.

×

10-Day Weather Forecast

Almanac

Astronomy

Apr. 24, 2015 Rise Set
Actual Time
Civil Twilight
Nautical Twilight
Astronomical Twilight
Moon
Length of Visible Light
Length of Day
Tomorrow will be .
, % of the Moon is Illuminated

Today's Extremes

State Highs State Lows

Community

WunderPhotos

Upload Photos

1,816,526 photos uploaded!

WunderBlogs® & News

Nearby

Air Quality

  Air Quality AQ Index Pollutant
Not available.

Snow Depth

Station Depth Elevation

Earthquake Activity

City Distance Mag. Time & Date
Minimum magnitude displayed is 2.5.

Coastal Water Temperatures

Place Temperature

Stations

Nearby Weather Stations

Station Location Temp. Windchill Dew Point Humidity Wind Precip. Elev Updated Type